createdAt,value
2024-02-02T00:01:57.618Z,10.67
2024-02-02T00:04:25.457Z,10.77
2024-02-02T00:06:53.167Z,10.35
2024-02-02T00:09:22.451Z,11.57
2024-02-02T00:11:50.250Z,10.95
2024-02-02T00:14:18.452Z,11.68
2024-02-02T00:16:46.566Z,10.73
2024-02-02T00:19:16.542Z,12.25
2024-02-02T00:21:44.318Z,11.57
2024-02-02T00:24:12.006Z,12.20
2024-02-02T00:26:40.461Z,11.75
2024-02-02T00:29:08.160Z,12.27
2024-02-02T00:31:36.450Z,12.80
2024-02-02T00:34:04.283Z,12.60
2024-02-02T00:36:34.520Z,13.07
2024-02-02T00:39:02.281Z,12.93
2024-02-02T00:41:30.479Z,12.73
2024-02-02T00:43:58.223Z,12.85
2024-02-02T00:46:26.493Z,12.50
2024-02-02T00:48:54.256Z,12.90
2024-02-02T00:51:22.544Z,12.65
2024-02-02T00:53:51.809Z,13.70
2024-02-02T00:56:20.570Z,13.88
2024-02-02T00:58:48.276Z,13.57
2024-02-02T01:01:16.517Z,13.13
2024-02-02T01:03:44.246Z,13.70
2024-02-02T01:06:12.630Z,14.52
2024-02-02T01:08:40.370Z,13.23
2024-02-02T01:11:10.534Z,13.27
2024-02-02T01:13:38.249Z,14.80
2024-02-02T01:16:07.496Z,14.20
2024-02-02T01:18:35.511Z,14.95
2024-02-02T01:21:04.521Z,13.63
2024-02-02T01:23:32.264Z,14.20
2024-02-02T01:26:00.013Z,13.30
2024-02-02T01:28:30.503Z,13.63
2024-02-02T01:30:58.194Z,13.68
2024-02-02T01:33:25.956Z,14.07
2024-02-02T01:35:53.955Z,12.52
2024-02-02T01:38:22.522Z,13.57
2024-02-02T01:40:51.113Z,12.80
2024-02-02T01:43:19.547Z,12.35
2024-02-02T01:45:48.600Z,12.88
2024-02-02T01:48:17.645Z,12.82
2024-02-02T01:50:45.430Z,12.60
2024-02-02T01:53:13.513Z,11.82
2024-02-02T01:55:41.514Z,11.73
2024-02-02T01:58:09.516Z,11.40
2024-02-02T02:00:38.028Z,9.90
2024-02-02T02:03:07.603Z,11.05
2024-02-02T02:05:36.982Z,10.77
2024-02-02T02:08:05.550Z,10.20
2024-02-02T02:10:33.635Z,10.48
2024-02-02T02:13:01.554Z,10.68
2024-02-02T02:15:29.353Z,9.95
2024-02-02T02:17:57.371Z,9.90
2024-02-02T02:20:27.756Z,10.33
2024-02-02T02:22:56.954Z,10.07
2024-02-02T02:25:25.608Z,10.30
2024-02-02T02:27:53.536Z,10.25
2024-02-02T02:30:21.597Z,9.57
2024-02-02T02:32:49.543Z,9.18
2024-02-02T02:35:18.581Z,9.10
2024-02-02T02:37:46.266Z,9.57
2024-02-02T02:40:16.577Z,8.35
2024-02-02T02:42:44.278Z,8.70
2024-02-02T02:45:13.617Z,9.52
2024-02-02T02:47:43.624Z,9.00
2024-02-02T02:50:12.632Z,8.15
2024-02-02T02:52:40.315Z,9.30
2024-02-02T02:55:08.601Z,9.27
2024-02-02T02:57:37.720Z,8.85
2024-02-02T03:00:10.754Z,8.88
2024-02-02T03:02:38.628Z,9.68
2024-02-02T03:05:07.729Z,9.10
2024-02-02T03:07:35.530Z,9.10
2024-02-02T03:10:03.236Z,8.85
2024-02-02T03:12:31.641Z,8.43
2024-02-02T03:15:00.937Z,9.57
2024-02-02T03:17:29.651Z,10.38
2024-02-02T03:19:57.491Z,9.52
2024-02-02T03:22:25.425Z,10.40
2024-02-02T03:24:53.648Z,10.07
2024-02-02T03:27:22.498Z,10.10
2024-02-02T03:29:50.628Z,10.05
2024-02-02T03:32:19.744Z,10.32
2024-02-02T03:34:48.594Z,10.52
2024-02-02T03:37:16.398Z,10.80
2024-02-02T03:39:47.643Z,11.40
2024-02-02T03:42:15.352Z,12.32
2024-02-02T03:44:43.655Z,11.57
2024-02-02T03:47:11.337Z,11.60
2024-02-02T03:49:40.947Z,11.93
2024-02-02T03:52:09.002Z,12.60
2024-02-02T03:54:37.724Z,11.65
2024-02-02T03:57:05.789Z,12.20
2024-02-02T03:59:33.658Z,12.55
2024-02-02T04:02:01.549Z,13.18
2024-02-02T04:04:29.239Z,13.40
2024-02-02T04:06:58.682Z,14.73
2024-02-02T04:09:26.351Z,13.27
2024-02-02T04:11:54.710Z,14.07
2024-02-02T04:14:23.412Z,14.40
2024-02-02T04:16:51.671Z,14.48
2024-02-02T04:19:20.917Z,13.63
2024-02-02T04:21:49.786Z,15.90
2024-02-02T04:24:19.113Z,15.05
2024-02-02T04:26:47.739Z,16.05
2024-02-02T04:29:15.389Z,15.88
2024-02-02T04:31:43.731Z,16.42
2024-02-02T04:34:12.243Z,16.38
2024-02-02T04:36:41.518Z,17.30
2024-02-02T04:39:09.776Z,16.67
2024-02-02T04:41:38.871Z,16.10
2024-02-02T04:44:06.823Z,17.33
2024-02-02T04:46:35.728Z,17.70
2024-02-02T04:49:03.605Z,15.38
2024-02-02T04:51:31.835Z,15.55
2024-02-02T04:53:59.548Z,16.95
2024-02-02T04:56:27.723Z,17.45
2024-02-02T04:58:56.798Z,17.52
2024-02-02T05:01:24.585Z,16.85
2024-02-02T05:03:52.775Z,17.80
2024-02-02T05:06:20.455Z,17.38
2024-02-02T05:08:48.768Z,16.15
2024-02-02T05:11:16.527Z,15.93
2024-02-02T05:13:44.757Z,17.05
2024-02-02T05:16:15.687Z,15.95
2024-02-02T05:18:45.066Z,15.90
2024-02-02T05:21:12.889Z,15.73
2024-02-02T05:23:47.140Z,15.57
2024-02-02T05:26:17.360Z,14.88
2024-02-02T05:28:56.755Z,14.77
2024-02-02T05:31:25.826Z,14.63
2024-02-02T05:33:53.891Z,15.18
2024-02-02T05:36:21.659Z,14.70
2024-02-02T05:38:49.791Z,12.65
2024-02-02T05:41:17.430Z,13.68
2024-02-02T05:43:45.760Z,13.07
2024-02-02T05:46:13.449Z,12.60
2024-02-02T05:48:42.958Z,12.40
2024-02-02T05:51:10.717Z,12.00
2024-02-02T05:53:38.402Z,12.38
2024-02-02T05:56:06.816Z,10.65
2024-02-02T05:58:34.488Z,11.32
2024-02-02T06:01:02.184Z,11.27
2024-02-02T06:03:30.851Z,10.48
2024-02-02T06:05:59.967Z,11.30
2024-02-02T06:08:27.820Z,9.57
2024-02-02T06:10:56.025Z,10.57
2024-02-02T06:13:23.705Z,9.95
2024-02-02T06:15:51.856Z,9.77
2024-02-02T06:18:20.966Z,10.65
2024-02-02T06:20:49.827Z,9.73
2024-02-02T06:23:18.920Z,8.98
2024-02-02T06:25:46.580Z,9.00
2024-02-02T06:28:15.839Z,8.18
2024-02-02T06:30:43.941Z,8.20
2024-02-02T06:33:12.687Z,8.43
2024-02-02T06:35:40.844Z,8.33
2024-02-02T06:38:08.605Z,8.10
2024-02-02T06:40:37.831Z,8.57
2024-02-02T06:43:06.389Z,8.73
2024-02-02T06:45:34.892Z,8.13
2024-02-02T06:48:03.087Z,7.93
2024-02-02T06:50:32.881Z,8.02
2024-02-02T06:53:00.565Z,8.57
2024-02-02T06:55:28.870Z,7.97
2024-02-02T06:57:57.987Z,8.77
2024-02-02T07:00:27.121Z,7.50
2024-02-02T07:02:55.012Z,7.93
2024-02-02T07:05:23.221Z,6.87
2024-02-02T07:07:51.887Z,7.30
2024-02-02T07:10:19.552Z,6.95
2024-02-02T07:12:56.061Z,6.43
2024-02-02T07:15:26.495Z,6.03
2024-02-02T07:17:55.021Z,7.75
2024-02-02T07:20:59.891Z,6.10
2024-02-02T07:23:36.946Z,7.30
2024-02-02T07:26:05.847Z,7.15
2024-02-02T07:28:38.438Z,6.03
2024-02-02T07:31:09.350Z,6.40
2024-02-02T07:33:41.061Z,7.13
2024-02-02T07:36:12.098Z,7.20
2024-02-02T07:38:50.998Z,6.80
2024-02-02T07:41:20.005Z,6.60
2024-02-02T07:43:49.083Z,6.20
2024-02-02T07:46:18.421Z,7.03
2024-02-02T07:48:48.339Z,7.03
2024-02-02T07:51:19.274Z,6.40
2024-02-02T07:53:47.884Z,7.32
2024-02-02T07:56:19.322Z,4.18
2024-02-02T07:58:56.290Z,5.95
2024-02-02T08:01:26.026Z,5.97
2024-02-02T08:03:53.983Z,5.68
2024-02-02T08:06:22.103Z,6.50
2024-02-02T08:08:49.826Z,6.53
2024-02-02T08:11:17.931Z,5.82
2024-02-02T08:13:45.670Z,5.90
2024-02-02T08:16:13.940Z,5.27
2024-02-02T08:18:43.389Z,5.70
2024-02-02T08:21:12.034Z,6.95
2024-02-02T08:23:39.767Z,6.53
2024-02-02T08:26:09.004Z,5.80
2024-02-02T08:28:45.659Z,6.18
2024-02-02T08:31:19.963Z,7.07
2024-02-02T08:33:49.282Z,6.53
2024-02-02T08:36:20.062Z,6.32
2024-02-02T08:38:47.986Z,5.90
2024-02-02T08:43:54.980Z,6.55
2024-02-02T08:46:24.153Z,6.95
2024-02-02T08:48:55.596Z,7.05
2024-02-02T08:51:49.142Z,6.90
2024-02-02T08:54:38.295Z,6.97
2024-02-02T08:57:27.043Z,7.00
2024-02-02T08:59:55.014Z,7.65
2024-02-02T09:02:43.064Z,5.20
2024-02-02T09:05:22.186Z,7.60
2024-02-02T09:07:54.026Z,7.38
2024-02-02T09:11:05.016Z,8.27
2024-02-02T09:13:35.169Z,8.55
2024-02-02T09:16:03.162Z,8.10
2024-02-02T09:18:35.063Z,8.50
2024-02-02T09:21:05.541Z,7.93
2024-02-02T09:23:55.062Z,7.47
2024-02-02T09:26:33.066Z,7.35
2024-02-02T09:29:03.063Z,10.02
2024-02-02T09:31:36.548Z,9.30
2024-02-02T09:34:08.347Z,8.80
2024-02-02T09:36:38.849Z,9.43
2024-02-02T09:39:11.162Z,9.43
2024-02-02T09:41:57.069Z,10.45
2024-02-02T09:44:37.422Z,10.63
2024-02-02T09:47:21.104Z,10.25
2024-02-02T09:49:55.763Z,9.07
2024-02-02T09:52:36.092Z,14.98
2024-02-02T09:55:09.837Z,9.75
2024-02-02T09:57:43.034Z,10.70
2024-02-02T10:00:18.200Z,10.55
2024-02-02T10:02:54.057Z,12.20
2024-02-02T10:05:34.486Z,10.02
2024-02-02T10:08:16.113Z,11.35
2024-02-02T10:10:58.918Z,11.00
2024-02-02T10:13:36.398Z,10.30
2024-02-02T10:16:15.081Z,12.00
2024-02-02T10:19:08.424Z,9.75
2024-02-02T10:21:46.172Z,12.35
2024-02-02T10:24:25.578Z,12.63
2024-02-02T10:27:07.130Z,10.20
2024-02-02T10:29:43.366Z,12.40
2024-02-02T10:32:28.187Z,12.55
2024-02-02T10:35:06.982Z,12.80
2024-02-02T10:37:37.143Z,13.35
2024-02-02T10:40:29.864Z,13.05
2024-02-02T10:43:16.100Z,9.68
2024-02-02T10:45:50.058Z,10.77
2024-02-02T10:48:34.215Z,9.40
2024-02-02T10:51:09.832Z,10.30
2024-02-02T10:53:46.184Z,13.98
2024-02-02T10:56:25.170Z,16.80
2024-02-02T10:59:16.362Z,16.65
2024-02-02T11:01:50.136Z,16.23
2024-02-02T11:04:28.134Z,16.77
2024-02-02T11:07:09.274Z,16.63
2024-02-02T11:09:45.070Z,17.77
2024-02-02T11:12:21.222Z,18.07
2024-02-02T11:14:52.467Z,19.50
2024-02-02T11:17:26.144Z,18.33
2024-02-02T11:20:05.945Z,19.60
2024-02-02T11:22:40.251Z,18.33
2024-02-02T11:25:14.345Z,20.70
2024-02-02T11:27:51.183Z,20.35
2024-02-02T11:30:32.630Z,18.27
2024-02-02T11:33:14.269Z,18.40
2024-02-02T11:35:48.628Z,19.97
2024-02-02T11:38:45.184Z,19.52
2024-02-02T11:41:18.892Z,19.98
2024-02-02T11:43:49.226Z,18.73
2024-02-02T11:46:19.391Z,19.03
2024-02-02T11:48:53.339Z,18.08
2024-02-02T11:51:22.396Z,18.77
2024-02-02T11:53:56.183Z,17.00
2024-02-02T11:56:29.019Z,20.33
2024-02-02T11:59:06.197Z,20.25
2024-02-02T12:01:44.222Z,19.25
2024-02-02T12:04:24.243Z,12.57
2024-02-02T12:06:59.331Z,17.15
2024-02-02T12:09:33.532Z,20.38
2024-02-02T12:12:02.567Z,18.85
2024-02-02T12:14:33.954Z,20.07
2024-02-02T12:17:02.212Z,19.33
2024-02-02T12:22:18.228Z,20.00
2024-02-02T12:24:48.716Z,21.10
2024-02-02T12:27:17.268Z,19.88
2024-02-02T12:30:09.795Z,18.95
2024-02-02T12:32:38.233Z,22.75
2024-02-02T12:35:06.770Z,22.53
2024-02-02T12:37:47.217Z,22.27
2024-02-02T12:40:15.275Z,21.40
2024-02-02T12:42:44.287Z,21.83
2024-02-02T12:45:14.738Z,21.25
2024-02-02T12:47:43.670Z,22.15
2024-02-02T12:50:16.533Z,20.30
2024-02-02T12:52:45.227Z,22.73
2024-02-02T12:55:14.820Z,20.92
2024-02-02T12:57:43.455Z,22.10
2024-02-02T13:00:15.400Z,21.75
2024-02-02T13:02:48.094Z,23.27
2024-02-02T13:05:18.626Z,20.33
2024-02-02T13:07:49.386Z,20.67
2024-02-02T13:10:18.692Z,20.90
2024-02-02T13:12:47.116Z,23.75
2024-02-02T13:15:18.346Z,19.45
2024-02-02T13:18:00.992Z,21.92
2024-02-02T13:20:33.444Z,22.08
2024-02-02T13:23:07.271Z,23.33
2024-02-02T13:25:34.975Z,22.17
2024-02-02T13:28:04.596Z,23.48
2024-02-02T13:30:34.349Z,19.63
2024-02-02T13:33:08.681Z,15.13
2024-02-02T13:35:41.390Z,20.63
2024-02-02T13:38:22.420Z,18.37
2024-02-02T13:40:50.670Z,22.10
2024-02-02T13:43:20.291Z,22.05
2024-02-02T13:45:49.367Z,19.25
2024-02-02T13:48:19.510Z,21.85
2024-02-02T13:50:53.104Z,22.33
2024-02-02T13:53:24.343Z,22.08
2024-02-02T13:55:53.197Z,21.88
2024-02-02T13:58:22.392Z,21.85
2024-02-02T14:00:50.735Z,21.17
2024-02-02T14:03:22.420Z,18.00
2024-02-02T14:05:51.498Z,20.98
2024-02-02T14:08:20.247Z,19.95
2024-02-02T14:10:49.105Z,16.40
2024-02-02T14:13:20.627Z,15.00
2024-02-02T14:15:51.432Z,20.48
2024-02-02T14:18:23.343Z,21.05
2024-02-02T14:20:51.210Z,17.73
2024-02-02T14:23:19.549Z,20.58
2024-02-02T14:25:49.506Z,18.70
2024-02-02T14:28:18.377Z,20.23
2024-02-02T14:30:46.689Z,19.85
2024-02-02T14:33:24.479Z,21.17
2024-02-02T14:35:56.358Z,17.85
2024-02-02T14:38:24.161Z,17.90
2024-02-02T14:40:54.555Z,21.30
2024-02-02T14:43:22.383Z,21.02
2024-02-02T14:45:50.844Z,21.05
2024-02-02T14:48:20.901Z,20.60
2024-02-02T14:50:48.763Z,22.48
2024-02-02T14:53:18.420Z,22.23
2024-02-02T14:55:46.176Z,21.80
2024-02-02T14:58:15.390Z,19.33
2024-02-02T15:00:45.869Z,21.92
2024-02-02T15:03:14.560Z,20.80
2024-02-02T15:05:42.407Z,21.20
2024-02-02T15:08:11.430Z,20.30
2024-02-02T15:10:42.099Z,21.73
2024-02-02T15:13:12.417Z,20.03
2024-02-02T15:15:40.258Z,23.10
2024-02-02T15:18:09.545Z,21.38
2024-02-02T15:20:37.365Z,21.10
2024-02-02T15:23:05.653Z,25.73
2024-02-02T15:25:33.389Z,25.20
2024-02-02T15:28:02.574Z,25.20
2024-02-02T15:30:30.475Z,25.97
2024-02-02T15:32:58.158Z,26.65
2024-02-02T15:35:26.462Z,28.88
2024-02-02T15:37:54.333Z,27.55
2024-02-02T15:40:22.457Z,29.08
2024-02-02T15:42:51.837Z,26.98
2024-02-02T15:45:21.193Z,29.65
2024-02-02T15:47:51.927Z,31.85
2024-02-02T15:50:19.997Z,30.53
2024-02-02T15:52:47.891Z,32.25
2024-02-02T15:55:16.064Z,30.90
2024-02-02T15:57:46.490Z,31.38
2024-02-02T16:00:15.411Z,31.00
2024-02-02T16:02:45.000Z,32.42
2024-02-02T16:05:17.460Z,33.83
2024-02-02T16:07:45.563Z,35.60
2024-02-02T16:10:14.508Z,33.08
2024-02-02T16:12:42.321Z,33.53
2024-02-02T16:15:11.502Z,35.75
2024-02-02T16:17:40.550Z,36.30
2024-02-02T16:20:12.531Z,34.20
2024-02-02T16:22:40.796Z,37.83
2024-02-02T16:25:11.483Z,37.47
2024-02-02T16:27:39.661Z,37.08
2024-02-02T16:30:09.528Z,39.10
2024-02-02T16:32:37.395Z,39.25
2024-02-02T16:35:07.778Z,39.53
2024-02-02T16:37:39.531Z,38.20
2024-02-02T16:40:09.507Z,38.53
2024-02-02T16:42:37.627Z,39.95
2024-02-02T16:45:06.583Z,38.97
2024-02-02T16:47:34.637Z,41.05
2024-02-02T16:50:02.394Z,40.80
2024-02-02T16:52:30.667Z,40.85
2024-02-02T16:54:59.723Z,38.58
2024-02-02T16:57:28.773Z,40.47
2024-02-02T16:59:58.530Z,41.45
2024-02-02T17:02:26.291Z,44.53
2024-02-02T17:04:54.633Z,43.03
2024-02-02T17:07:23.957Z,41.13
2024-02-02T17:09:52.637Z,41.17
2024-02-02T17:12:22.857Z,44.33
2024-02-02T17:14:51.542Z,43.75
2024-02-02T17:17:20.092Z,43.65
2024-02-02T17:19:48.617Z,41.70
2024-02-02T17:22:16.706Z,42.97
2024-02-02T17:24:45.593Z,36.42
2024-02-02T17:27:13.285Z,41.20
2024-02-02T17:29:45.565Z,34.78
2024-02-02T17:32:17.312Z,42.17
2024-02-02T17:34:49.266Z,41.60
2024-02-02T17:37:17.164Z,38.65
2024-02-02T17:39:46.685Z,39.08
2024-02-02T17:42:14.506Z,42.57
2024-02-02T17:44:42.557Z,34.58
2024-02-02T17:47:12.338Z,43.80
2024-02-02T17:49:45.551Z,40.87
2024-02-02T17:52:16.931Z,40.65
2024-02-02T17:54:45.722Z,41.05
2024-02-02T17:57:13.579Z,40.80
2024-02-02T17:59:42.587Z,40.72
2024-02-02T18:02:12.024Z,40.58
2024-02-02T18:04:40.613Z,41.47
2024-02-02T18:07:09.822Z,44.90
2024-02-02T18:09:40.642Z,44.63
2024-02-02T18:12:12.102Z,41.30
2024-02-02T18:14:39.937Z,40.97
2024-02-02T18:17:08.610Z,44.33
2024-02-02T18:19:38.035Z,46.03
2024-02-02T18:22:06.611Z,40.20
2024-02-02T18:24:34.362Z,44.33
2024-02-02T18:27:02.689Z,46.20
2024-02-02T18:29:30.370Z,48.13
2024-02-02T18:31:58.663Z,37.15
2024-02-02T18:34:26.526Z,44.80
2024-02-02T18:36:56.670Z,44.42
2024-02-02T18:39:24.365Z,47.28
2024-02-02T18:41:52.916Z,42.50
2024-02-02T18:44:20.574Z,41.05
2024-02-02T18:46:48.712Z,45.97
2024-02-02T18:49:16.673Z,43.70
2024-02-02T18:51:44.461Z,39.28
2024-02-02T18:54:14.682Z,37.35
2024-02-02T18:56:42.463Z,42.53
2024-02-02T18:59:10.116Z,42.85
2024-02-02T19:01:38.694Z,38.30
2024-02-02T19:04:06.708Z,34.42
2024-02-02T19:06:38.772Z,1.10
2024-02-02T19:09:07.625Z,0.25
2024-02-02T19:11:37.697Z,0.60
2024-02-02T19:14:06.600Z,0.70
2024-02-02T19:16:34.745Z,1.50
2024-02-02T19:19:02.560Z,1.20
2024-02-02T19:21:33.354Z,0.43
2024-02-02T19:24:02.763Z,0.38
2024-02-02T19:26:30.722Z,0.30
2024-02-02T19:29:00.223Z,0.90
2024-02-02T19:31:28.736Z,0.38
2024-02-02T19:33:57.972Z,1.10
2024-02-02T19:36:28.409Z,0.00
2024-02-02T19:38:57.740Z,0.10
2024-02-02T19:41:26.728Z,0.60
2024-02-02T19:43:55.720Z,0.88
2024-02-02T19:46:35.190Z,0.40
2024-02-02T19:49:04.865Z,0.68
2024-02-02T19:51:33.822Z,0.40
2024-02-02T19:54:02.891Z,0.05
2024-02-02T19:56:30.717Z,1.20
2024-02-02T19:58:59.735Z,0.97
2024-02-02T20:01:27.536Z,0.75
2024-02-02T20:03:57.808Z,0.60
2024-02-02T20:06:25.654Z,0.45
2024-02-02T20:08:53.742Z,0.40
2024-02-02T20:11:22.933Z,0.20
2024-02-02T20:13:50.692Z,0.20
2024-02-02T20:19:02.923Z,1.52
2024-02-02T20:21:30.687Z,0.10
2024-02-02T20:23:58.781Z,0.60
2024-02-02T20:26:26.773Z,0.10
2024-02-02T20:28:55.833Z,0.25
2024-02-02T20:31:24.816Z,0.70
2024-02-02T20:33:54.379Z,0.30
2024-02-02T20:36:29.245Z,2.15
2024-02-02T20:39:15.295Z,1.25
2024-02-02T20:41:43.784Z,0.80
2024-02-02T20:44:11.431Z,0.10
2024-02-02T20:46:39.786Z,0.20
2024-02-02T20:49:07.543Z,0.85
2024-02-02T20:51:41.853Z,0.10
2024-02-02T20:54:09.559Z,0.55
2024-02-02T20:56:41.812Z,1.30
2024-02-02T20:59:09.526Z,0.32
2024-02-02T21:01:37.845Z,0.70
2024-02-02T21:04:05.992Z,1.40
2024-02-02T21:06:34.010Z,0.80
2024-02-02T21:09:03.913Z,1.38
2024-02-02T21:11:31.728Z,1.40
2024-02-02T21:13:59.817Z,0.60
2024-02-02T21:16:27.452Z,0.30
2024-02-02T21:18:57.978Z,0.40
2024-02-02T21:21:25.769Z,0.70
2024-02-02T21:23:53.848Z,0.22
2024-02-02T21:26:23.805Z,1.48
2024-02-02T21:28:51.839Z,0.50
2024-02-02T21:31:19.665Z,1.20
2024-02-02T21:33:47.875Z,0.35
2024-02-02T21:36:15.677Z,1.58
2024-02-02T21:38:43.688Z,0.85
2024-02-02T21:41:11.886Z,0.10
2024-02-02T21:43:40.963Z,0.60
2024-02-02T21:46:08.866Z,0.90
2024-02-02T21:48:36.743Z,0.30
2024-02-02T21:51:08.886Z,0.85
2024-02-02T21:53:36.647Z,2.03
2024-02-02T21:56:05.867Z,0.28
2024-02-02T21:58:33.545Z,0.08
2024-02-02T22:01:03.062Z,0.40
2024-02-02T22:03:30.980Z,1.10
2024-02-02T22:05:58.911Z,0.90
2024-02-02T22:08:26.675Z,0.40
2024-02-02T22:10:54.318Z,1.13
2024-02-02T22:13:22.875Z,0.50
2024-02-02T22:15:50.648Z,0.30
2024-02-02T22:18:20.188Z,0.38
2024-02-02T22:20:48.911Z,1.47
2024-02-02T22:23:16.584Z,1.00
2024-02-02T22:25:44.930Z,0.63
2024-02-02T22:28:13.239Z,0.20
2024-02-02T22:30:41.981Z,1.17
2024-02-02T22:33:09.855Z,0.45
2024-02-02T22:35:39.916Z,0.25
2024-02-02T22:38:07.696Z,0.20
2024-02-02T22:40:35.982Z,0.32
2024-02-02T22:43:03.698Z,0.30
2024-02-02T22:45:31.481Z,0.63
2024-02-02T22:48:00.019Z,0.20
2024-02-02T22:50:27.748Z,1.05
2024-02-02T22:52:57.111Z,0.77
2024-02-02T22:55:24.952Z,0.28
2024-02-02T22:57:52.672Z,0.10
2024-02-02T23:00:22.561Z,1.20
2024-02-02T23:02:51.981Z,1.10
2024-02-02T23:05:19.659Z,0.22
2024-02-02T23:07:47.306Z,0.77
2024-02-02T23:10:16.942Z,1.00
2024-02-02T23:12:46.089Z,0.80
2024-02-02T23:15:15.003Z,0.30
2024-02-02T23:17:43.398Z,0.28
2024-02-02T23:20:12.114Z,0.73
2024-02-02T23:22:39.828Z,1.17
2024-02-02T23:25:07.967Z,0.50
2024-02-02T23:27:38.067Z,0.00
2024-02-02T23:30:07.983Z,1.00
2024-02-02T23:32:35.754Z,0.65
2024-02-02T23:35:04.056Z,0.80
2024-02-02T23:37:32.143Z,1.20
2024-02-02T23:40:00.005Z,0.13
2024-02-02T23:42:27.716Z,0.93
2024-02-02T23:44:57.051Z,1.00
2024-02-02T23:47:24.694Z,0.30
2024-02-02T23:49:52.370Z,1.20
2024-02-02T23:52:21.011Z,0.45
2024-02-02T23:54:48.799Z,0.80
2024-02-02T23:57:22.129Z,0.80
2024-02-02T23:59:49.825Z,0.50
